• Join FlightAware (Why Join?)
  • Login
  • US Flag 
04:56PM EDT


 

Airport Tracker/Info


-or-


 

Live Flight TrackerFlight Track Log ✈ THY4 ✈ 15-Jul-2013 ✈ KJFK - LTBA / IST

Flight Track Log - Related Links

Times and Time Zones

All times are in EDT time to prevent confusion due to time zone crossing. See the THY4 flight status page for this flight to view local times or setup timezone preferences in your user account.

Time Position Orientation Groundspeed Altitude Reporting Facility
EDT Latitude Longitude Course Direction KTS MPH feet Rate Location/Type
12:58PM 40.6420 -73.7910 351° North 10 12  Level FlightAware
12:59PM 40.6410 -73.7900 143° Southeast 2 2  Level FlightAware
01:01PM 40.6410 -73.7920 270° West 10 12 60 Level FlightAware
01:04PM 40.8855 -73.5645 37° Northeast  Level FlightAware Approximate
01:05PM 40.9894 -73.4606 37° Northeast  Level FlightAware Approximate
01:05PM 40.6400 -73.7930 37° Northeast 15 17  Level FlightAware
01:06PM 41.0993 -73.3673 37° Northeast  Level FlightAware Approximate
01:06PM 40.6390 -73.7930 180° South 16 18  Level FlightAware
01:06PM 40.6390 -73.7920 90° East 25 29 120 Level FlightAware
01:07PM 40.6380 -73.7910 143° Southeast 27 31 120 Level FlightAware
01:07PM 40.6370 -73.7890 123° Southeast 31 36 120 Level FlightAware
01:08PM 40.6370 -73.7880 90° East 22 25 120 Level FlightAware
01:08PM 40.6360 -73.7870 143° Southeast 23 26 180 Level FlightAware
01:09PM 40.6350 -73.7850 123° Southeast 23 26 180 Level FlightAware
01:09PM 40.6350 -73.7840 90° East 26 30 240 Level FlightAware
01:09PM 40.6340 -73.7830 143° Southeast 19 22 240 Level FlightAware
01:10PM 40.6340 -73.7820 90° East 20 23 300 Level FlightAware
01:10PM 40.6330 -73.7830 217° Southwest 20 23 420 Level FlightAware
01:11PM 40.6370 -73.7910 303° West 105 121 540 Level FlightAware
01:12PM 40.6530 -73.8280 300° West 176 203 800 1,920 Climbing FlightAware
01:12PM 40.6550 -73.8380 285° West 176 203 1,300 1,560 Climbing FlightAware
01:12PM 40.6410 -73.8640 235° Southwest 185 213 1,900 1,560 Climbing FlightAware
01:13PM 40.6300 -73.8750 217° Southwest 183 211 2,500 1,980 Climbing FlightAware
01:13PM 40.6240 -73.8760 187° South 181 208 2,700 1,200 Climbing FlightAware
01:13PM 40.6080 -73.8650 152° Southeast 195 224 3,100 900 Climbing FlightAware
01:13PM 40.6040 -73.8510 111° Southeast 204 235 3,200 720 Climbing FlightAware
01:14PM 40.6080 -73.8160 81° East 233 268 3,600 900 Climbing FlightAware
01:14PM 40.6140 -73.7720 80° East 266 306 4,100 1,260 Climbing FlightAware
01:15PM 40.6170 -73.7510 79° East 276 318 4,500 2,520 Climbing FlightAware
01:15PM 40.6230 -73.7120 79° East 278 320 5,600 2,580 Climbing FlightAware
01:15PM 40.6290 -73.6910 69° East 279 321 6,100 1,980 Climbing FlightAware
01:15PM 40.6450 -73.6710 43° Northeast 280 322 6,600 2,280 Climbing FlightAware
01:16PM 40.6740 -73.6490 30° Northeast 280 322 7,700 2,640 Climbing FlightAware
01:16PM 40.7040 -73.6260 30° Northeast 277 319 9,000 2,700 Climbing FlightAware
01:17PM 40.7182 -73.6152 30° Northeast 278 320 9,500 1,620 Climbing FlightAware ADS-B
01:17PM 40.7670 -73.5810 28° Northeast 304 350 10,500 1,080 Climbing FlightAware
01:18PM 40.8250 -73.5390 29° Northeast 347 399 11,100 1,140 Climbing FlightAware
01:19PM 40.8850 -73.4970 28° Northeast 368 423 12,100 1,680 Climbing FlightAware
01:19PM 40.9510 -73.4490 29° Northeast 377 434 13,500 1,860 Climbing FlightAware
01:20PM 41.0140 -73.4040 28° Northeast 385 443 14,800 1,800 Climbing FlightAware
01:21PM 41.0761 -73.3590 29° Northeast 391 450 16,000 1,800 Climbing FlightAware ADS-B
01:21PM 41.1186 -73.3169 37° Northeast 399 459 16,900 1,620 Climbing FlightAware ADS-B
01:22PM 41.1783 -73.2274 48° Northeast 408 470 18,100 1,440 Climbing FlightAware ADS-B
01:23PM 41.2182 -73.1694 48° Northeast 416 479 18,800 1,440 Climbing FlightAware ADS-B
01:23PM 41.2638 -73.1026 48° Northeast 425 489 19,700 1,560 Climbing FlightAware ADS-B
01:24PM 41.3079 -73.0378 48° Northeast 431 496 20,600 1,260 Climbing FlightAware ADS-B
01:24PM 41.3520 -72.9730 48° Northeast 440 506 21,200 960 Climbing FlightAware
01:25PM 41.3870 -72.9220 48° Northeast 448 516 21,600 1,380 Climbing FlightAware
01:25PM 41.4570 -72.8190 48° Northeast 451 519 22,900 1,380 Climbing FlightAware
01:26PM 41.5140 -72.7350 48° Northeast 459 528 23,700 540 Climbing FlightAware
01:27PM 41.5710 -72.6530 47° Northeast 460 529 23,700  Level FlightAware
01:28PM 41.6300 -72.5690 47° Northeast 460 529 23,700  Level FlightAware
01:28PM 41.6760 -72.5030 47° Northeast 460 529 23,700  Level FlightAware
01:29PM 41.7320 -72.4210 48° Northeast 460 529 23,700  Level FlightAware
01:30PM 41.7790 -72.3540 47° Northeast 460 529 23,700 2,640 Level FlightAware
01:31PM 41.9860 -72.1330 38° Northeast 477 549 29,200 2,880 Climbing FlightAware
01:32PM 42.0510 -72.0540 42° Northeast 473 544 30,000 1,140 Climbing FlightAware
01:33PM 42.1290 -71.9590 42° Northeast 472 543 30,900 1,080 Climbing FlightAware
01:33PM 42.2110 -71.8590 42° Northeast 462 532 31,800 1,020 Climbing FlightAware
01:34PM 42.2830 -71.7710 42° Northeast 460 529 32,600 960 Climbing FlightAware
01:35PM 42.3470 -71.6920 42° Northeast 461 531 33,200 900 Climbing FlightAware
01:36PM 42.4120 -71.6130 42° Northeast 460 529 33,800 780 Climbing FlightAware
01:36PM 42.4660 -71.5460 42° Northeast 462 532 34,200 720 Climbing FlightAware
01:37PM 42.5380 -71.4570 42° Northeast 461 531 34,800 540 Climbing FlightAware
01:38PM 42.6030 -71.3760 43° Northeast 462 532 35,000 120 Climbing FlightAware
01:38PM 42.6560 -71.3110 42° Northeast 460 529 35,000  Level FlightAware
01:39PM 42.7280 -71.2210 43° Northeast 463 533 35,000  Level FlightAware
01:40PM 42.7880 -71.1460 43° Northeast 465 535 35,000  Level FlightAware
01:40PM 42.8550 -71.0610 43° Northeast 461 531 35,000  Level FlightAware
01:41PM 42.8950 -71.0100 43° Northeast 462 532 35,000  Level FlightAware
01:41PM 42.9630 -70.9250 42° Northeast 462 532 35,000  Level FlightAware
01:42PM 43.0290 -70.8420 43° Northeast 464 534 35,000  Level FlightAware
01:43PM 43.1000 -70.7510 43° Northeast 465 535 35,000  Level FlightAware
01:43PM 43.1670 -70.6660 43° Northeast 467 537 35,000  Level FlightAware
01:44PM 43.2350 -70.5780 43° Northeast 468 539 35,000  Level FlightAware
01:45PM 43.3290 -70.4580 43° Northeast 474 545 35,000  Level FlightAware
01:46PM 43.3950 -70.3730 43° Northeast 473 544 35,000  Level FlightAware
01:47PM 43.4650 -70.2820 43° Northeast 473 544 35,000  Level FlightAware
01:47PM 43.5350 -70.1920 43° Northeast 473 544 35,000  Level FlightAware
01:48PM 43.5930 -70.1160 43° Northeast 473 544 35,000  Level FlightAware
01:49PM 43.6680 -70.0190 43° Northeast 471 542 35,000  Level FlightAware
01:49PM 43.7280 -69.9400 44° Northeast 471 542 35,000  Level FlightAware
01:50PM 43.7870 -69.8630 43° Northeast 471 542 35,000  Level FlightAware
01:51PM 43.8550 -69.7730 44° Northeast 471 542 35,000  Level FlightAware
01:51PM 43.9180 -69.6890 44° Northeast 473 544 35,000  Level FlightAware
01:52PM 43.9770 -69.6120 43° Northeast 473 544 35,000  Level FlightAware
01:53PM 44.0510 -69.5130 44° Northeast 473 544 35,000  Level FlightAware
01:53PM 44.1200 -69.4210 44° Northeast 473 544 35,000  Level FlightAware
01:54PM 44.1860 -69.3320 44° Northeast 475 547 35,000  Level FlightAware
01:55PM 44.2440 -69.2550 44° Northeast 476 548 35,000  Level FlightAware
01:55PM 44.3010 -69.1780 44° Northeast 477 549 35,000  Level FlightAware
01:56PM 44.3790 -69.0730 44° Northeast 478 550 35,000  Level FlightAware
01:57PM 44.4370 -68.9940 44° Northeast 478 550 35,000  Level FlightAware
01:58PM 44.5050 -68.9010 44° Northeast 478 550 35,000  Level FlightAware
01:58PM 44.5740 -68.8070 44° Northeast 478 550 35,000  Level FlightAware
01:59PM 44.6410 -68.7150 44° Northeast 480 552 35,000  Level FlightAware
02:00PM 44.7030 -68.6310 44° Northeast 480 552 35,000  Level FlightAware
02:00PM 44.7700 -68.5380 45° Northeast 482 555 35,000  Level FlightAware
02:01PM 44.8370 -68.4450 45° Northeast 482 555 35,000  Level FlightAware
02:02PM 44.9060 -68.3490 45° Northeast 484 557 35,000  Level FlightAware
02:02PM 44.9670 -68.2640 45° Northeast 485 558 35,000  Level FlightAware
02:03PM 45.0450 -68.1560 44° Northeast 486 559 35,000  Level FlightAware
02:04PM 45.1010 -68.0770 45° Northeast 486 559 35,000  Level FlightAware
02:04PM 45.1650 -67.9870 45° Northeast 485 558 35,000  Level FlightAware
02:05PM 45.2280 -67.8980 45° Northeast 485 558 35,000  Level FlightAware
02:06PM 45.2930 -67.8060 45° Northeast 486 559 35,000  Level FlightAware
02:06PM 45.3520 -67.7220 45° Northeast 486 559 35,000  Level FlightAware
02:07PM 45.4230 -67.6280 43° Northeast 486 559 35,000  Level FlightAware
02:08PM 45.4890 -67.5430 42° Northeast 486 559 35,000  Level FlightAware
02:09PM 45.5590 -67.4500 43° Northeast 488 562 35,000  Level FlightAware
02:09PM 45.6280 -67.3590 43° Northeast 484 557 35,000  Level FlightAware
02:10PM 45.6860 -67.2820 43° Northeast 489 563 35,000  Level FlightAware
02:11PM 45.8010 -67.1280 43° Northeast 488 562 35,000  Level FlightAware
02:12PM 45.8910 -67.0070 43° Northeast 486 559 35,000  Level FlightAware
02:13PM 45.9530 -66.9240 43° Northeast 486 559 35,000  Level FlightAware
02:13PM 46.0290 -66.8210 43° Northeast 488 562 35,000  Level FlightAware
02:14PM 46.0910 -66.7360 44° Northeast 488 562 35,000  Level FlightAware
02:14PM 46.1310 -66.6820 43° Northeast 489 563 35,000  Level FlightAware
02:16PM 46.2770 -66.4840 43° Northeast 489 563 35,000  Level FlightAware
02:17PM 46.3790 -66.3420 44° Northeast 490 564 35,000  Level FlightAware
02:18PM 46.4470 -66.2500 43° Northeast 490 564 35,000  Level FlightAware
02:18PM 46.4970 -66.1810 44° Northeast 490 564 35,000  Level FlightAware
02:19PM 46.5650 -66.0890 43° Northeast 490 564 35,000  Level FlightAware
02:20PM 46.6790 -65.9230 45° Northeast 495 570 35,000  Level FlightAware
02:21PM 46.7470 -65.8290 43° Northeast 495 570 35,000  Level FlightAware
02:21PM 46.7970 -65.7580 44° Northeast 495 570 35,000  Level FlightAware
02:22PM 46.8470 -65.6860 45° Northeast 495 570 35,000  Level FlightAware
02:23PM 46.9340 -65.5640 44° Northeast 495 570 35,000  Level FlightAware
02:24PM 46.9860 -65.4900 44° Northeast 495 570 35,000  Level FlightAware
02:24PM 47.0370 -65.4190 43° Northeast 495 570 35,000  Level FlightAware
02:25PM 47.1070 -65.3200 44° Northeast 495 570 35,000  Level FlightAware
02:26PM 47.1570 -65.2480 44° Northeast 495 570 35,000  Level FlightAware
02:27PM 47.2410 -65.1290 44° Northeast 495 570 35,000  Level FlightAware
02:27PM 47.2910 -65.0570 44° Northeast 495 570 35,000  Level FlightAware
02:28PM 47.3590 -64.9610 44° Northeast 495 570 35,000  Level FlightAware
02:29PM 47.4230 -64.8690 44° Northeast 495 570 35,000  Level FlightAware
02:29PM 47.4750 -64.7950 44° Northeast 495 570 35,000  Level FlightAware
02:31PM 47.7167 -64.3833 44° Northeast 490 564 35,000  Level Gander Center
02:32PM 47.8167 -64.2500 42° Northeast 490 564 35,000  Level Gander Center
02:33PM 47.9333 -64.1000 41° Northeast 490 564 35,000  Level Gander Center
02:34PM 48.0167 -63.9500 50° Northeast 490 564 35,000  Level Moncton Center
02:35PM 48.1167 -63.8000 45° Northeast 490 564 35,000  Level Moncton Center
02:36PM 48.2167 -63.6500 45° Northeast 490 564 35,000  Level Moncton Center
02:37PM 48.3000 -63.5167 47° Northeast 490 564 35,000  Level Moncton Center
02:38PM 48.4000 -63.3667 45° Northeast 490 564 35,000  Level Moncton Center
02:39PM 48.5000 -63.2167 45° Northeast 490 564 35,000  Level Moncton Center
02:40PM 48.5833 -63.0500 53° Northeast 500 575 35,000  Level Gander Center
02:41PM 48.6833 -62.9000 45° Northeast 490 564 35,000  Level Gander Center
02:42PM 48.7667 -62.7500 50° Northeast 500 575 35,000  Level Gander Center
02:43PM 48.8667 -62.6000 45° Northeast 500 575 35,000  Level Gander Center
02:44PM 48.9667 -62.4500 45° Northeast 500 575 35,000  Level Gander Center
02:45PM 49.0833 -62.3000 40° Northeast 500 575 35,000  Level Gander Center
02:46PM 49.1667 -62.1500 50° Northeast 500 575 35,000  Level Gander Center
02:47PM 49.2667 -61.9667 50° Northeast 500 575 35,000  Level Gander Center
02:48PM 49.3500 -61.8167 50° Northeast 500 575 35,000  Level Gander Center
02:49PM 49.4500 -61.6667 44° Northeast 510 587 35,000  Level Gander Center
02:50PM 49.5500 -61.5167 44° Northeast 510 587 35,000  Level Gander Center
02:51PM 49.6333 -61.3667 49° Northeast 500 575 35,000  Level Gander Center
02:52PM 49.7333 -61.1833 50° Northeast 500 575 35,000  Level Gander Center
02:53PM 49.8333 -61.0167 47° Northeast 510 587 35,000  Level Gander Center
02:54PM 49.9333 -60.8667 44° Northeast 500 575 35,000  Level Gander Center
02:55PM 50.0167 -60.7167 49° Northeast 500 575 35,000  Level Gander Center
02:56PM 50.1167 -60.5500 47° Northeast 510 587 35,000  Level Gander Center
02:57PM 50.2167 -60.3667 50° Northeast 510 587 35,000  Level Gander Center
02:58PM 50.3000 -60.2167 49° Northeast 510 587 35,000  Level Gander Center
02:59PM 50.4000 -60.0500 47° Northeast 510 587 35,000  Level Gander Center
03:00PM 50.5000 -59.8833 47° Northeast 510 587 35,000  Level Gander Center
03:01PM 50.6000 -59.7000 49° Northeast 520 598 35,000  Level Gander Center
03:02PM 50.6833 -59.5333 52° Northeast 530 610 35,000  Level Gander Center
03:03PM 50.7667 -59.3500 54° Northeast 530 610 35,000  Level Gander Center
03:04PM 50.8667 -59.1667 49° Northeast 530 610 35,000  Level Gander Center
03:05PM 50.9500 -58.9667 56° Northeast 530 610 35,000  Level Gander Center
03:06PM 51.0500 -58.7833 49° Northeast 530 610 35,000  Level Gander Center
03:07PM 51.1167 -58.5833 62° Northeast 530 610 35,000  Level Gander Center
03:08PM 51.2167 -58.4000 49° Northeast 530 610 35,000  Level Gander Center
03:09PM 51.3000 -58.2333 51° Northeast 530 610 35,000  Level Gander Center
03:10PM 51.4000 -58.0167 53° Northeast 530 610 35,000  Level Gander Center
03:11PM 51.4667 -57.8500 57° Northeast 540 621 35,000  Level Gander Center
03:12PM 51.5667 -57.6167 55° Northeast 530 610 35,000  Level Gander Center
03:13PM 51.6667 -57.4333 49° Northeast 530 610 35,000  Level Gander Center
03:14PM 51.7333 -57.2500 60° Northeast 540 621 35,000  Level Gander Center
03:15PM 51.8333 -57.0333 53° Northeast 540 621 35,000  Level Gander Center
03:16PM 51.9167 -56.8667 51° Northeast 540 621 35,000  Level Gander Center
03:17PM 52.0000 -56.6333 60° Northeast 540 621 35,000  Level Gander Center
03:18PM 52.1000 -56.4667 46° Northeast 540 621 35,000  Level Gander Center
03:19PM 52.1833 -56.2333 60° Northeast 540 621 35,000  Level Gander Center
03:20PM 52.2667 -56.0333 56° Northeast 540 621 35,000  Level Gander Center
03:21PM 52.3500 -55.8333 56° Northeast 550 633 35,000  Level Gander Center
03:22PM 52.4333 -55.6333 56° Northeast 550 633 35,000  Level Gander Center
03:23PM 52.5167 -55.4333 56° Northeast 550 633 35,000  Level Gander Center
03:24PM 52.6000 -55.2167 58° Northeast 550 633 35,000  Level Gander Center
03:25PM 52.6833 -55.0167 55° Northeast 540 621 35,000  Level Gander Center
03:26PM 52.7667 -54.8167 55° Northeast 540 621 35,000  Level Gander Center
03:27PM 52.8667 -54.6000 53° Northeast 540 621 35,000  Level Gander Center
03:28PM 52.9500 -54.4000 55° Northeast 530 610 35,000  Level Gander Center
03:29PM 53.0000 -54.2167 66° East 540 621 35,000  Level Gander Center
03:30PM 53.0667 -53.9833 64° Northeast 540 621 35,000  Level Gander Center
03:31PM 53.1500 -53.7500 59° Northeast 540 621 35,000  Level Gander Center
03:32PM 53.2000 -53.5167 70° East 540 621 35,000  Level Gander Center
03:33PM 53.2500 -53.2833 70° East 540 621 35,000  Level Gander Center
03:34PM 53.3000 -53.0500 70° East 540 621 35,000  Level Gander Center
03:35PM 53.3667 -52.8000 66° East 540 621 35,000  Level Gander Center
03:36PM 53.4167 -52.5667 70° East 540 621 35,000  Level Gander Center
03:37PM 53.4667 -52.3333 70° East 540 621 35,000  Level Gander Center
03:38PM 53.5167 -52.1333 67° East 540 621 35,000  Level Gander Center
03:39PM 53.5833 -51.8833 66° East 530 610 35,000  Level Gander Center
03:40PM 53.6167 -51.6500 76° East 530 610 35,000  Level Gander Center
03:41PM 53.6667 -51.4167 70° East 530 610 35,000  Level Gander Center
03:42PM 53.7333 -51.1667 66° East 530 610 35,000  Level Gander Center
03:43PM 53.7833 -50.9667 67° East 540 621 35,000  Level Gander Center
03:44PM 53.8167 -50.7167 77° East 530 610 35,000  Level Gander Center
03:45PM 53.8667 -50.4833 70° East 520 598 35,000  Level Gander Center
03:46PM 53.9167 -50.2333 71° East 520 598 35,000  Level Gander Center
03:47PM 53.9833 -50.0167 62° Northeast 520 598 35,000  Level Gander Center
03:48PM 54.0333 -49.8167 67° East 520 598 35,000  Level Gander Center
03:50PM 54.1667 -49.4790 56° Northeast  Level FlightAware Approximate
03:57PM 54.6736 -48.0692 60° Northeast  Level FlightAware Approximate
03:58PM 54.7419 -47.8622 60° Northeast  Level FlightAware Approximate
03:59PM 54.8098 -47.6544 60° Northeast  Level FlightAware Approximate
04:00PM 54.8789 -47.4475 60° Northeast  Level FlightAware Approximate
04:01PM 54.9478 -47.2401 60° Northeast  Level FlightAware Approximate
04:02PM 55.0164 -47.0319 60° Northeast  Level FlightAware Approximate
04:03PM 55.0846 -46.8230 60° Northeast  Level FlightAware Approximate
04:04PM 55.1525 -46.6134 60° Northeast  Level FlightAware Approximate
04:05PM 55.2200 -46.4031 61° Northeast  Level FlightAware Approximate
04:06PM 55.2871 -46.1921 61° Northeast  Level FlightAware Approximate
04:07PM 55.3539 -45.9804 61° Northeast  Level FlightAware Approximate
04:08PM 55.4203 -45.7680 61° Northeast  Level FlightAware Approximate
04:09PM 55.4863 -45.5548 61° Northeast  Level FlightAware Approximate
04:10PM 55.5520 -45.3410 61° Northeast  Level FlightAware Approximate
04:11PM 55.6172 -45.1263 62° Northeast  Level FlightAware Approximate
04:12PM 55.6818 -44.9107 62° Northeast  Level FlightAware Approximate
04:13PM 55.7460 -44.6944 62° Northeast  Level FlightAware Approximate
04:14PM 55.8098 -44.4774 62° Northeast  Level FlightAware Approximate
04:15PM 55.8732 -44.2596 62° Northeast  Level FlightAware Approximate
04:16PM 55.9363 -44.0412 63° Northeast  Level FlightAware Approximate
04:17PM 55.9989 -43.8220 63° Northeast  Level FlightAware Approximate
04:18PM 56.0612 -43.6021 63° Northeast  Level FlightAware Approximate
04:19PM 56.1231 -43.3816 63° Northeast  Level FlightAware Approximate
04:20PM 56.1846 -43.1603 63° Northeast  Level FlightAware Approximate
04:21PM 56.2457 -42.9383 64° Northeast  Level FlightAware Approximate
04:22PM 56.3064 -42.7156 64° Northeast  Level FlightAware Approximate
04:23PM 56.3666 -42.4922 64° Northeast  Level FlightAware Approximate
04:24PM 56.4265 -42.2681 64° Northeast  Level FlightAware Approximate
04:25PM 56.4860 -42.0433 64° Northeast  Level FlightAware Approximate
04:26PM 56.5451 -41.8178 65° Northeast  Level FlightAware Approximate
04:27PM 56.6038 -41.5915 65° Northeast  Level FlightAware Approximate
04:28PM 56.6620 -41.3646 65° Northeast  Level FlightAware Approximate
04:29PM 56.7198 -41.1370 65° Northeast  Level FlightAware Approximate
04:30PM 56.7773 -40.9087 65° Northeast  Level FlightAware Approximate
04:31PM 56.8343 -40.6797 65° Northeast  Level FlightAware Approximate
04:32PM 56.8909 -40.4500 66° East  Level FlightAware Approximate
04:33PM 56.9470 -40.2196 66° East  Level FlightAware Approximate
04:34PM 57.0028 -39.9884 66° East  Level FlightAware Approximate
04:35PM 57.0579 -39.7565 66° East  Level FlightAware Approximate
04:36PM 57.1126 -39.5239 66° East  Level FlightAware Approximate
04:37PM 57.1669 -39.2906 67° East  Level FlightAware Approximate
04:38PM 57.2207 -39.0566 67° East  Level FlightAware Approximate
04:39PM 57.2742 -38.8219 67° East  Level FlightAware Approximate
04:40PM 57.3277 -38.5871 66° East  Level FlightAware Approximate
04:41PM 57.3833 -38.3534 66° East  Level FlightAware Approximate
04:42PM 57.4384 -38.1191 66° East  Level FlightAware Approximate
04:43PM 57.4930 -37.8840 67° East  Level FlightAware Approximate
04:44PM 57.5473 -37.6482 67° East  Level FlightAware Approximate
04:45PM 57.6011 -37.4118 67° East  Level FlightAware Approximate
04:46PM 57.6544 -37.1746 67° East  Level FlightAware Approximate
04:47PM 57.7073 -36.9367 67° East  Level FlightAware Approximate
04:48PM 57.7598 -36.6982 68° East  Level FlightAware Approximate
04:49PM 57.8117 -36.4589 68° East  Level FlightAware Approximate
04:50PM 57.8633 -36.2190 68° East  Level FlightAware Approximate
04:51PM 57.9144 -35.9784 68° East  Level FlightAware Approximate
04:52PM 57.9650 -35.7371 68° East  Level FlightAware Approximate
04:53PM 58.0152 -35.4951 69° East  Level FlightAware Approximate
04:54PM 58.0649 -35.2524 69° East  Level FlightAware Approximate
04:55PM 58.1142 -35.0091 69° East  Level FlightAware Approximate
04:56PM 58.1630 -34.7651 69° East  Level FlightAware Approximate
04:57PM 58.2113 -34.5204 69° East  Level FlightAware Approximate
04:58PM 58.2592 -34.2751 70° East  Level FlightAware Approximate
04:59PM 58.3066 -34.0291 70° East  Level FlightAware Approximate
05:00PM 58.3535 -33.7825 70° East  Level FlightAware Approximate
05:01PM 58.3999 -33.5351 70° East  Level FlightAware Approximate
05:02PM 58.4459 -33.2872 70° East  Level FlightAware Approximate
05:03PM 58.4914 -33.0386 71° East  Level FlightAware Approximate
05:04PM 58.5364 -32.7894 71° East  Level FlightAware Approximate
05:05PM 58.5809 -32.5395 71° East  Level FlightAware Approximate
05:06PM 58.6249 -32.2890 71° East  Level FlightAware Approximate
05:07PM 58.6685 -32.0378 71° East  Level FlightAware Approximate
05:08PM 58.7115 -31.7861 72° East  Level FlightAware Approximate
05:09PM 58.7541 -31.5337 72° East  Level FlightAware Approximate
05:10PM 58.7961 -31.2807 72° East  Level FlightAware Approximate
05:11PM 58.8377 -31.0271 72° East  Level FlightAware Approximate
05:12PM 58.8788 -30.7729 73° East  Level FlightAware Approximate
05:13PM 58.9193 -30.5181 73° East  Level FlightAware Approximate
05:14PM 58.9594 -30.2627 73° East  Level FlightAware Approximate
05:15PM 58.9990 -30.0067 73° East  Level FlightAware Approximate
05:16PM 59.0588 -29.7657 64° Northeast  Level FlightAware Approximate
05:17PM 59.1187 -29.5242 64° Northeast  Level FlightAware Approximate
05:18PM 59.1781 -29.2820 64° Northeast  Level FlightAware Approximate
05:19PM 59.2371 -29.0389 65° Northeast  Level FlightAware Approximate
05:20PM 59.2957 -28.7949 65° Northeast  Level FlightAware Approximate
05:21PM 59.3537 -28.5501 65° Northeast  Level FlightAware Approximate
05:22PM 59.4114 -28.3045 65° Northeast  Level FlightAware Approximate
05:23PM 59.4685 -28.0580 65° Northeast  Level FlightAware Approximate
05:24PM 59.5252 -27.8107 66° East  Level FlightAware Approximate
05:25PM 59.5815 -27.5626 66° East  Level FlightAware Approximate
05:26PM 59.6372 -27.3137 66° East  Level FlightAware Approximate
05:27PM 59.6925 -27.0639 66° East  Level FlightAware Approximate
05:28PM 59.7473 -26.8133 66° East  Level FlightAware Approximate
05:29PM 59.8017 -26.5619 67° East  Level FlightAware Approximate
05:30PM 59.8555 -26.3096 67° East  Level FlightAware Approximate
05:31PM 59.9089 -26.0566 67° East  Level FlightAware Approximate
05:31PM 60.1040 -25.1060 67° East 511 588 37,000  Level FlightAware
05:32PM 59.9618 -25.8027 67° East  Level FlightAware Approximate
05:32PM 60.1380 -24.9310 69° East 511 588 37,000  Level FlightAware
05:33PM 60.1760 -24.7390 68° East 511 588 37,000  Level FlightAware
05:34PM 60.2160 -24.5360 68° East 511 588 37,000  Level FlightAware
05:34PM 60.2560 -24.3270 69° East 512 589 37,000  Level FlightAware
05:35PM 60.2890 -24.1590 68° East 513 590 37,000  Level FlightAware
05:36PM 60.3250 -23.9670 69° East 512 589 37,000  Level FlightAware
05:36PM 60.3580 -23.7900 69° East 512 589 37,000  Level FlightAware
05:37PM 60.3900 -23.6180 69° East 513 590 37,000  Level FlightAware
05:38PM 60.4380 -23.3610 69° East 514 592 37,000  Level FlightAware
05:39PM 60.4690 -23.1900 70° East 512 589 37,000  Level FlightAware
05:39PM 60.4980 -23.0280 70° East 511 588 37,000  Level FlightAware
05:40PM 60.5390 -22.8010 70° East 511 588 37,000  Level FlightAware
05:41PM 60.5710 -22.6180 70° East 513 590 37,000  Level FlightAware
05:41PM 60.6050 -22.4230 70° East 513 590 37,000  Level FlightAware
05:42PM 60.6370 -22.2380 70° East 515 593 37,000  Level FlightAware
05:43PM 60.6690 -22.0530 70° East 513 590 37,000  Level FlightAware
05:44PM 60.7000 -21.8720 71° East 512 589 37,000  Level FlightAware
05:44PM 60.7270 -21.7060 72° East 512 589 37,000  Level FlightAware
05:45PM 60.7600 -21.5100 71° East 511 588 37,000  Level FlightAware
05:46PM 60.7960 -21.2950 71° East 512 589 37,000  Level FlightAware
05:46PM 60.8230 -21.1230 72° East 512 589 37,000  Level FlightAware
05:47PM 60.8570 -20.9130 72° East 512 589 37,000  Level FlightAware
05:48PM 60.8870 -20.7280 71° East 513 590 37,000  Level FlightAware
05:48PM 60.9170 -20.5380 72° East 513 590 37,000  Level FlightAware
05:49PM 60.9480 -20.3360 72° East 513 590 37,000  Level FlightAware
05:50PM 60.9780 -20.1440 72° East 512 589 37,000  Level FlightAware
05:50PM 61.0090 -19.9420 72° East 512 589 37,000  Level FlightAware
05:51PM 61.0350 -19.7500 74° East 511 588 37,000  Level FlightAware
05:52PM 61.0600 -19.5700 74° East 512 589 37,000  Level FlightAware
05:52PM 61.0850 -19.3880 74° East 514 592 37,000  Level FlightAware
05:53PM 61.1110 -19.1900 75° East 515 593 37,000  Level FlightAware
05:54PM 61.1360 -19.0050 74° East 517 595 37,000  Level FlightAware
05:55PM 61.1640 -18.7920 75° East 518 596 37,000  Level FlightAware
05:55PM 61.1900 -18.5920 75° East 517 595 37,000  Level FlightAware
05:56PM 61.2150 -18.3910 75° East 518 596 37,000  Level FlightAware
05:57PM 61.2400 -18.2000 75° East 518 596 37,000  Level FlightAware
05:57PM 61.2620 -18.0230 75° East 519 597 37,000  Level FlightAware
05:58PM 61.2860 -17.8230 76° East 518 596 37,000  Level FlightAware
05:59PM 61.3120 -17.6120 76° East 517 595 37,000  Level FlightAware
05:59PM 61.3310 -17.4540 76° East 519 597 37,000  Level FlightAware
06:00PM 61.3540 -17.2610 76° East 519 597 37,000  Level FlightAware
06:01PM 61.3810 -17.0330 76° East 518 596 37,000  Level FlightAware
06:01PM 61.4020 -16.8510 76° East 518 596 37,000  Level FlightAware
06:02PM 61.4250 -16.6450 77° East 518 596 37,000  Level FlightAware
06:03PM 61.4490 -16.4300 77° East 517 595 37,000  Level FlightAware
06:03PM 61.4730 -16.2170 77° East 516 594 37,000  Level FlightAware
06:04PM 61.4900 -16.0580 77° East 515 593 37,000  Level FlightAware
06:05PM 61.5120 -15.8490 77° East 516 594 37,000  Level FlightAware
06:05PM 61.5350 -15.6360 77° East 517 595 37,000  Level FlightAware
06:06PM 61.5510 -15.4750 78° East 517 595 37,000  Level FlightAware
06:07PM 61.5730 -15.2640 78° East 517 595 37,000  Level FlightAware
06:07PM 61.5930 -15.0670 78° East 518 596 37,000  Level FlightAware
06:08PM 61.6140 -14.8530 78° East 518 596 37,000  Level FlightAware
06:09PM 61.6340 -14.6530 78° East 519 597 37,000  Level FlightAware
06:10PM 61.6540 -14.4400 79° East 519 597 37,000  Level FlightAware
06:10PM 61.6730 -14.2400 79° East 518 596 37,000  Level FlightAware
06:11PM 61.6930 -14.0180 79° East 519 597 37,000  Level FlightAware
06:12PM 61.7160 -13.7650 79° East 519 597 37,000  Level FlightAware
06:13PM 61.7350 -13.5500 79° East 517 595 37,000  Level FlightAware
06:13PM 61.7530 -13.3480 79° East 516 594 37,000  Level FlightAware
06:14PM 61.7720 -13.1230 80° East 515 593 37,000  Level FlightAware
06:15PM 61.7950 -12.8540 80° East 517 595 37,000  Level FlightAware
06:16PM 61.8100 -12.6700 80° East 518 596 37,000  Level FlightAware
06:17PM 61.8360 -12.3400 80° East 522 601 37,000  Level FlightAware
06:17PM 61.8520 -12.1360 80° East 521 600 37,000  Level FlightAware
06:18PM 61.8670 -11.9390 81° East 521 600 37,000  Level FlightAware
06:19PM 61.8840 -11.7140 81° East 521 600 37,000  Level FlightAware
06:19PM 61.8960 -11.5520 81° East 521 600 37,000  Level FlightAware
06:20PM 61.9130 -11.3180 81° East 520 598 37,000  Level FlightAware
06:21PM 61.9270 -11.1230 81° East 521 600 37,000  Level FlightAware
06:21PM 61.9410 -10.9120 82° East 521 600 37,000  Level FlightAware
06:22PM 61.9560 -10.6940 82° East 522 601 37,000  Level FlightAware
06:23PM 61.9700 -10.4730 82° East 521 600 37,000  Level FlightAware
06:23PM 61.9830 -10.2720 82° East 521 600 37,000  Level FlightAware
06:24PM 61.9930 -10.0630 84° East 519 597 37,000  Level FlightAware
06:25PM 61.9890 -9.8320 92° East 515 593 37,000  Level FlightAware
06:25PM 61.9790 -9.6700 97° East 515 593 37,000  Level FlightAware
06:26PM 61.9650 -9.4470 98° East 516 594 37,000  Level FlightAware
06:27PM 61.9550 -9.2840 97° East 516 594 37,000  Level FlightAware
06:28PM 61.9430 -9.0740 97° East 516 594 37,000  Level FlightAware
06:28PM 61.9340 -8.9200 97° East 516 594 37,000  Level FlightAware
06:29PM 61.9220 -8.7140 97° East 516 594 37,000  Level FlightAware
06:30PM 61.8910 -8.3760 101° East 517 595 37,000  Level FlightAware
06:31PM 61.8700 -8.1000 99° East 516 594 37,000  Level FlightAware
06:31PM 61.8570 -7.9170 98° East 516 594 37,000  Level FlightAware
06:32PM 61.8420 -7.7310 100° East 515 593 37,000  Level FlightAware
06:33PM 61.8250 -7.5130 99° East 514 592 37,000  Level FlightAware
06:33PM 61.8100 -7.3300 100° East 514 592 37,000  Level FlightAware
06:34PM 61.7930 -7.1250 100° East 512 589 37,000  Level FlightAware
06:35PM 61.7760 -6.9240 100° East 511 588 37,000  Level FlightAware
06:35PM 61.7580 -6.7050 100° East 511 588 37,000  Level FlightAware
06:36PM 61.7400 -6.5050 101° East 512 589 37,000  Level FlightAware
06:37PM 61.7210 -6.2890 100° East 511 588 37,000  Level FlightAware
06:37PM 61.7040 -6.0980 101° East 512 589 37,000  Level FlightAware
06:38PM 61.6880 -5.9210 101° East 511 588 37,000  Level FlightAware
06:39PM 61.6690 -5.7170 101° East 511 588 37,000  Level FlightAware
06:39PM 61.6510 -5.5260 101° East 513 590 37,000  Level FlightAware
06:40PM 61.6330 -5.3400 101° East 512 589 37,000  Level FlightAware
06:41PM 61.6140 -5.1410 101° East 511 588 37,000  Level FlightAware
06:41PM 61.5930 -4.9330 102° East 510 587 37,000  Level FlightAware
06:42PM 61.5730 -4.7380 102° East 508 585 37,000  Level FlightAware
06:43PM 61.5520 -4.5270 102° East 506 582 37,000  Level FlightAware
06:43PM 61.5320 -4.3380 102° East 504 580 37,000  Level FlightAware
06:44PM 61.5100 -4.1290 102° East 503 579 37,000  Level FlightAware
06:45PM 61.4960 -3.9980 103° East 504 580 37,000  Level FlightAware
06:46PM 61.4720 -3.7690 102° East 504 580 37,000  Level FlightAware
06:47PM 61.4380 -3.4700 103° East 506 582 37,000  Level FlightAware
06:47PM 61.4160 -3.2730 103° East 506 582 37,000  Level FlightAware
06:48PM 61.3930 -3.0750 104° East 506 582 37,000  Level FlightAware
06:49PM 61.3700 -2.8790 104° East 507 583 37,000  Level FlightAware
06:49PM 61.3450 -2.6660 104° East 506 582 37,000  Level FlightAware
06:50PM 61.3220 -2.4750 104° East 507 583 37,000  Level FlightAware
06:51PM 61.3110 -2.3790 103° East 507 583 37,000  Level FlightAware
06:51PM 61.2930 -2.2310 104° East 506 582 37,000  Level FlightAware
06:52PM 61.2560 -1.9340 104° East 505 581 37,000  Level FlightAware
06:53PM 61.2300 -1.7190 104° East 504 580 37,000  Level FlightAware
06:53PM 61.2050 -1.5270 105° East 505 581 37,000  Level FlightAware
06:54PM 61.1840 -1.3640 105° East 505 581 37,000  Level FlightAware
06:55PM 61.1540 -1.1330 105° East 506 582 37,000  Level FlightAware
06:56PM 61.1230 -0.8980 105° East 508 585 37,000  Level FlightAware
06:56PM 61.0980 -0.7140 106° East 507 583 37,000  Level FlightAware
06:57PM 61.0710 -0.5110 105° East 506 582 37,000  Level FlightAware
06:58PM 61.0450 -0.3240 106° East 506 582 37,000  Level FlightAware
06:58PM 61.0140 -0.1210 107° East 506 582 37,000  Level FlightAware
06:59PM 60.9810 0.0270 115° Southeast 505 581 37,000  Level FlightAware
07:00PM 60.9240 0.2110 122° Southeast 501 577 37,000  Level FlightAware
07:01PM 60.8340 0.4930 123° Southeast 502 578 37,000  Level FlightAware
07:01PM 60.7940 0.6100 125° Southeast 507 583 37,000  Level FlightAware
07:02PM 60.7440 0.7570 125° Southeast 508 585 37,000  Level FlightAware
07:03PM 60.6850 0.9270 125° Southeast 508 585 37,000  Level FlightAware
07:03PM 60.6300 1.0860 125° Southeast 506 582 37,000  Level FlightAware
07:04PM 60.5930 1.1900 126° Southeast 507 583 37,000  Level FlightAware
07:05PM 60.5180 1.4050 125° Southeast 513 590 37,000  Level FlightAware
07:06PM 60.4580 1.5730 126° Southeast 512 589 37,000  Level FlightAware
07:06PM 60.3990 1.7380 126° Southeast 511 588 37,000  Level FlightAware
07:07PM 60.3410 1.8990 126° Southeast 510 587 37,000  Level FlightAware
07:08PM 60.2800 2.0680 126° Southeast 512 589 37,000  Level FlightAware
07:08PM 60.2350 2.1900 127° Southeast 514 592 37,000  Level FlightAware
07:09PM 60.1841 2.3295 127° Southeast 466 536 37,000  Level FlightAware UK
07:09PM 60.1730 2.3600 127° Southeast 516 594 37,000  Level FlightAware
07:10PM 60.1160 2.5150 126° Southeast 517 595 37,000  Level FlightAware
07:10PM 60.0640 2.6550 127° Southeast 517 595 37,000  Level FlightAware
07:11PM 60.0046 2.8125 127° Southeast 468 539 37,000  Level FlightAware UK
07:11PM 59.9890 2.8540 127° Southeast 516 594 37,000  Level FlightAware
07:12PM 59.9290 3.0120 127° Southeast 516 594 37,000  Level FlightAware
07:13PM 59.8668 3.1775 127° Southeast 466 536 37,000  Level FlightAware UK
07:13PM 59.8640 3.1840 127° Southeast 517 595 37,000  Level FlightAware
07:13PM 59.8154 3.3126 127° Southeast 466 536 37,000  Level FlightAware UK
07:13PM 59.8010 3.3480 127° Southeast 517 595 37,000  Level FlightAware
07:14PM 59.7430 3.4990 127° Southeast 517 595 37,000  Level FlightAware
07:15PM 59.6753 3.6732 127° Southeast 462 532 37,000  Level FlightAware UK
07:15PM 59.6920 3.6280 127° Southeast 511 588 37,000  Level FlightAware
07:16PM 59.5960 3.8760 127° Southeast 514 592 37,000  Level FlightAware
07:16PM 59.5876 3.8975 127° Southeast 466 536 37,000  Level FlightAware UK
07:16PM 59.5433 4.0098 127° Southeast 464 534 37,000  Level FlightAware UK
07:16PM 59.5310 4.0390 127° Southeast 520 598 37,000  Level FlightAware
07:17PM 59.4630 4.2110 128° Southeast 519 597 37,000  Level FlightAware
07:18PM 59.4050 4.3560 128° Southeast 520 598 37,000  Level FlightAware
07:18PM 59.3484 4.5005 128° Southeast 462 532 37,000  Level FlightAware UK
07:19PM 59.3370 4.5250 128° Southeast 521 600 37,000  Level FlightAware
07:19PM 59.2830 4.6580 128° Southeast 523 602 37,000  Level FlightAware
07:20PM 59.2170 4.8190 129° Southeast 520 598 37,000  Level FlightAware
07:21PM 59.1580 4.9630 129° Southeast 522 601 37,000  Level FlightAware
07:21PM 59.1500 4.9879 129° Southeast 464 534 37,000  Level FlightAware UK
07:21PM 59.1038 5.0993 129° Southeast 464 534 37,000  Level FlightAware UK
07:21PM 59.0980 5.1090 129° Southeast 523 602 37,000  Level FlightAware
07:22PM 59.0492 5.2303 129° Southeast 466 536 37,000  Level FlightAware UK
07:22PM 59.0350 5.2590 129° Southeast 522 601 37,000  Level FlightAware
07:23PM 58.9770 5.3980 129° Southeast 521 600 37,000  Level FlightAware
07:23PM 58.9566 5.4520 129° Southeast 464 534 37,000  Level FlightAware UK
07:23PM 58.9250 5.5210 129° Southeast 521 600 37,000  Level FlightAware
07:23PM 58.9105 5.5614 129° Southeast 464 534 37,000  Level FlightAware UK
07:24PM 58.8500 5.7070 128° Southeast 532 612 37,000  Level FlightAware
07:25PM 58.8000 5.8580 123° Southeast 531 611 37,000  Level FlightAware
07:25PM 58.7550 5.9980 122° Southeast 534 615 37,000  Level FlightAware
07:26PM 58.6970 6.1680 123° Southeast 533 613 37,000  Level FlightAware
07:27PM 58.6330 6.3560 123° Southeast 533 613 37,000  Level FlightAware
07:27PM 58.5810 6.5100 123° Southeast 532 612 37,000  Level FlightAware
07:28PM 58.5260 6.6670 124° Southeast 531 611 37,000  Level FlightAware
07:29PM 58.4720 6.8230 123° Southeast 529 609 37,000  Level FlightAware
07:29PM 58.4110 6.9970 124° Southeast 531 611 37,000  Level FlightAware
07:30PM 58.3320 7.2210 124° Southeast 536 617 37,000  Level FlightAware
07:31PM 58.2580 7.4280 124° Southeast 535 616 37,000  Level FlightAware
07:32PM 58.2030 7.5800 124° Southeast 533 613 37,000  Level FlightAware
07:33PM 58.1400 7.7560 124° Southeast 532 612 37,000  Level FlightAware
07:33PM 58.0800 7.9140 126° Southeast 529 609 37,000  Level FlightAware
07:34PM 58.0170 8.0490 131° Southeast 530 610 37,000  Level FlightAware
07:35PM 57.9500 8.2040 129° Southeast 531 611 37,000  Level FlightAware
07:35PM 57.8880 8.3420 130° Southeast 535 616 37,000  Level FlightAware
07:36PM 57.8140 8.5020 131° Southeast 536 617 37,000  Level FlightAware
07:37PM 57.7510 8.6380 131° Southeast 540 621 37,000  Level FlightAware
07:38PM 57.6790 8.7930 131° Southeast 541 623 37,000  Level FlightAware
07:38PM 57.6120 8.9370 131° Southeast 543 625 37,000  Level FlightAware
07:39PM 57.5470 9.0760 131° Southeast 541 623 37,000  Level FlightAware
07:39PM 57.4880 9.2110 129° Southeast 542 624 37,000  Level FlightAware
07:40PM 57.4220 9.3600 129° Southeast 541 623 37,000  Level FlightAware
07:41PM 57.3570 9.5050 130° Southeast 541 623 37,000  Level FlightAware
07:41PM 57.2970 9.6380 130° Southeast 541 623 37,000  Level FlightAware
07:42PM 57.2270 9.7930 130° Southeast 540 621 37,000  Level FlightAware
07:43PM 57.1630 9.9320 130° Southeast 540 621 37,000  Level FlightAware
07:44PM 57.0990 10.0710 130° Southeast 538 619 37,000  Level FlightAware
07:44PM 57.0300 10.2200 130° Southeast 537 618 37,000  Level FlightAware
07:45PM 56.9380 10.4190 130° Southeast 536 617 37,000  Level FlightAware
07:46PM 56.8570 10.5910 131° Southeast 536 617 37,000  Level FlightAware
07:47PM 56.7830 10.7480 131° Southeast 536 617 37,000  Level FlightAware
07:47PM 56.7180 10.8850 131° Southeast 537 618 37,000  Level FlightAware
07:48PM 56.6460 11.0360 131° Southeast 535 616 37,000  Level FlightAware
07:49PM 56.5840 11.1630 132° Southeast 535 616 37,000  Level FlightAware
07:49PM 56.5210 11.2930 131° Southeast 533 613 37,000  Level FlightAware
07:50PM 56.4550 11.4280 131° Southeast 531 611 37,000  Level FlightAware
07:51PM 56.3910 11.5610 131° Southeast 529 609 37,000  Level FlightAware
07:51PM 56.3310 11.6810 132° Southeast 529 609 37,000  Level FlightAware
07:52PM 56.2640 11.8180 131° Southeast 530 610 37,000  Level FlightAware
07:53PM 56.1980 11.9490 132° Southeast 530 610 37,000  Level FlightAware
07:54PM 56.1270 12.0930 131° Southeast 532 612 37,000  Level FlightAware
07:54PM 56.0530 12.2390 132° Southeast 531 611 37,000  Level FlightAware
07:55PM 55.9900 12.3640 132° Southeast 532 612 37,000  Level FlightAware
07:56PM 55.9200 12.5010 132° Southeast 532 612 37,000  Level FlightAware
07:56PM 55.8510 12.6360 132° Southeast 530 610 37,000  Level FlightAware
07:57PM 55.7650 12.7690 139° Southeast 528 608 37,000  Level FlightAware
07:58PM 55.6920 12.8810 139° Southeast 530 610 37,000  Level FlightAware
07:58PM 55.6120 13.0050 139° Southeast 530 610 37,000  Level FlightAware
07:59PM 55.5380 13.1190 139° Southeast 531 611 37,000  Level FlightAware
08:00PM 55.4720 13.2210 139° Southeast 530 610 37,000  Level FlightAware
08:01PM 55.3720 13.3730 139° Southeast 531 611 37,000  Level FlightAware
08:01PM 55.2890 13.4990 139° Southeast 530 610 37,000  Level FlightAware
08:02PM 55.2240 13.5960 140° Southeast 529 609 37,000  Level FlightAware
08:03PM 55.1490 13.7080 140° Southeast 527 606 37,000  Level FlightAware
08:03PM 55.0660 13.8320 139° Southeast 527 606 37,000  Level FlightAware
08:04PM 55.0030 13.9260 139° Southeast 525 604 37,000  Level FlightAware
08:05PM 54.9210 14.0470 140° Southeast 524 603 37,000  Level FlightAware
08:05PM 54.8440 14.1590 140° Southeast 525 604 37,000  Level FlightAware
08:06PM 54.7720 14.2650 140° Southeast 525 604 37,000  Level FlightAware
08:07PM 54.6970 14.3730 140° Southeast 526 605 37,000  Level FlightAware
08:07PM 54.6120 14.4960 140° Southeast 526 605 37,000  Level FlightAware
08:08PM 54.5270 14.6190 140° Southeast 527 606 37,000  Level FlightAware
08:09PM 54.4640 14.7080 141° Southeast 524 603 37,000  Level FlightAware
08:09PM 54.3890 14.8150 140° Southeast 523 602 37,000  Level FlightAware
08:10PM 54.3140 14.9220 140° Southeast 522 601 37,000  Level FlightAware
08:11PM 54.2070 15.0720 141° Southeast 523 602 37,000 300 Level FlightAware
08:12PM 54.1330 15.1760 141° Southeast 526 605 37,500 780 Climbing FlightAware
08:12PM 54.0500 15.2920 141° Southeast 527 606 38,100 720 Climbing FlightAware
08:13PM 53.9830 15.3850 141° Southeast 531 611 38,500 600 Climbing FlightAware
08:14PM 53.9070 15.4900 141° Southeast 533 613 38,900 300 Climbing FlightAware
08:14PM 53.8230 15.6050 141° Southeast 536 617 39,000 60 Climbing FlightAware
08:15PM 53.7460 15.7100 141° Southeast 535 616 39,000  Level FlightAware
08:16PM 53.6680 15.8160 141° Southeast 533 613 39,000  Level FlightAware
08:17PM 53.5840 15.9300 141° Southeast 531 611 39,000  Level FlightAware
08:17PM 53.5090 16.0320 141° Southeast 530 610 39,000  Level FlightAware
08:18PM 53.4240 16.1450 142° Southeast 528 608 39,000  Level FlightAware
08:19PM 53.3480 16.2470 141° Southeast 526 605 39,000  Level FlightAware
08:19PM 53.2610 16.3620 142° Southeast 525 604 39,000  Level FlightAware
08:20PM 53.1850 16.4620 142° Southeast 526 605 39,000  Level FlightAware
08:21PM 53.1060 16.5670 141° Southeast 527 606 39,000  Level FlightAware
08:21PM 53.0280 16.6690 142° Southeast 527 606 39,000  Level FlightAware
08:22PM 52.9300 16.7960 142° Southeast 524 603 39,000  Level FlightAware
08:23PM 52.8530 16.8960 142° Southeast 521 600 39,000  Level FlightAware
08:24PM 52.7660 17.0070 142° Southeast 520 598 39,000  Level FlightAware
08:24PM 52.7060 17.0850 142° Southeast 518 596 39,000  Level FlightAware
08:25PM 52.6280 17.1830 143° Southeast 517 595 39,000  Level FlightAware
08:26PM 52.5330 17.3040 142° Southeast 517 595 39,000  Level FlightAware
08:26PM 52.4620 17.3950 142° Southeast 518 596 39,000  Level FlightAware
08:27PM 52.3780 17.5000 143° Southeast 518 596 39,000  Level FlightAware
08:28PM 52.3010 17.5970 142° Southeast 520 598 39,000  Level FlightAware
08:29PM 52.2140 17.7050 143° Southeast 520 598 39,000  Level FlightAware
08:29PM 52.1380 17.7990 143° Southeast 520 598 39,000  Level FlightAware
08:30PM 52.0520 17.9040 143° Southeast 521 600 39,000  Level FlightAware
08:31PM 51.9760 17.9990 142° Southeast 521 600 39,000  Level FlightAware
08:31PM 51.9080 18.0820 143° Southeast 519 597 39,000  Level FlightAware
08:32PM 51.8280 18.1790 143° Southeast 519 597 39,000  Level FlightAware
08:33PM 51.7410 18.2850 143° Southeast 520 598 39,000  Level FlightAware
08:33PM 51.6640 18.3780 143° Southeast 520 598 39,000  Level FlightAware
08:34PM 51.5870 18.4700 143° Southeast 518 596 39,000  Level FlightAware
08:35PM 51.5040 18.5690 143° Southeast 513 590 39,000  Level FlightAware
08:35PM 51.4280 18.6590 144° Southeast 511 588 39,000  Level FlightAware
08:36PM 51.3610 18.7390 143° Southeast 509 586 39,000  Level FlightAware
08:37PM 51.2800 18.8350 143° Southeast 506 582 39,000  Level FlightAware
08:37PM 51.1980 18.9320 143° Southeast 503 579 39,000  Level FlightAware
08:38PM 51.1400 18.9990 144° Southeast 501 577 39,000  Level FlightAware
08:39PM 51.0560 19.0980 143° Southeast 498 573 39,000  Level FlightAware
08:39PM 50.9820 19.1830 144° Southeast 496 571 39,000  Level FlightAware
08:40PM 50.9010 19.2770 144° Southeast 496 571 39,000  Level FlightAware
08:41PM 50.8280 19.3610 144° Southeast 496 571 39,000  Level FlightAware
08:42PM 50.7450 19.4560 144° Southeast 496 571 39,000  Level FlightAware
08:42PM 50.6630 19.5490 144° Southeast 499 574 39,000  Level FlightAware
08:43PM 50.6010 19.6200 144° Southeast 502 578 39,000  Level FlightAware
08:44PM 50.5270 19.7050 144° Southeast 504 580 39,000  Level FlightAware
08:44PM 50.4450 19.7970 144° Southeast 503 579 39,000  Level FlightAware
08:45PM 50.3750 19.8760 144° Southeast 503 579 39,000  Level FlightAware
08:46PM 50.2870 19.9740 145° Southeast 503 579 39,000  Level FlightAware
08:46PM 50.2080 20.0620 145° Southeast 503 579 39,000  Level FlightAware
08:47PM 50.1240 20.1550 145° Southeast 501 577 39,000  Level FlightAware
08:48PM 50.0480 20.2390 145° Southeast 500 575 39,000  Level FlightAware
08:48PM 49.9690 20.3260 145° Southeast 499 574 39,000  Level FlightAware
08:49PM 49.8910 20.4120 145° Southeast 498 573 39,000  Level FlightAware
08:50PM 49.8090 20.5010 145° Southeast 498 573 39,000  Level FlightAware
08:51PM 49.7300 20.5870 145° Southeast 498 573 39,000  Level FlightAware
08:51PM 49.6530 20.6710 145° Southeast 498 573 39,000  Level FlightAware
08:52PM 49.5790 20.7510 145° Southeast 500 575 39,000  Level FlightAware
08:53PM 49.5040 20.8310 145° Southeast 499 574 39,000  Level FlightAware
08:53PM 49.4310 20.9100 145° Southeast 498 573 39,000  Level FlightAware
08:54PM 49.3520 20.9890 147° Southeast 499 574 39,000  Level FlightAware
08:55PM 49.2660 21.0700 148° Southeast 500 575 39,000  Level FlightAware
08:55PM 49.1790 21.1530 148° Southeast 498 573 39,000  Level FlightAware
08:56PM 49.1000 21.2290 148° Southeast 498 573 39,000  Level FlightAware
08:57PM 49.0150 21.3110 148° Southeast 496 571 39,000  Level FlightAware
08:57PM 48.9550 21.3680 148° Southeast 496 571 39,000  Level FlightAware
08:58PM 48.8710 21.4470 148° Southeast 495 570 39,000  Level FlightAware
08:59PM 48.7910 21.5230 148° Southeast 496 571 39,000  Level FlightAware
08:59PM 48.7220 21.5880 148° Southeast 498 573 39,000  Level FlightAware
09:00PM 48.6370 21.6670 148° Southeast 498 573 39,000  Level FlightAware
09:01PM 48.5600 21.7390 148° Southeast 498 573 39,000  Level FlightAware
09:01PM 48.4740 21.8200 148° Southeast 497 572 39,000  Level FlightAware
09:02PM 48.3910 21.8740 157° South 496 571 39,000  Level FlightAware
09:03PM 48.2950 21.9240 161° South 495 570 39,000  Level FlightAware
09:03PM 48.2040 21.9740 160° South 494 568 39,000  Level FlightAware
09:04PM 48.1320 22.0140 160° South 495 570 39,000  Level FlightAware
09:05PM 48.0350 22.0670 160° South 496 571 39,000  Level FlightAware
09:05PM 47.9500 22.1130 160° South 496 571 39,000  Level FlightAware
09:06PM 47.8770 22.1520 160° South 494 568 39,000  Level FlightAware
09:07PM 47.7840 22.2030 160° South 494 568 39,000  Level FlightAware
09:07PM 47.6940 22.2510 160° South 495 570 39,000  Level FlightAware
09:08PM 47.6250 22.2880 160° South 495 570 39,000  Level FlightAware
09:09PM 47.5290 22.3390 160° South 495 570 39,000  Level FlightAware
09:09PM 47.4430 22.3850 160° South 497 572 39,000  Level FlightAware
09:10PM 47.3450 22.4370 160° South 496 571 39,000  Level FlightAware
09:11PM 47.2370 22.4940 160° South 496 571 39,000  Level FlightAware
09:12PM 47.1390 22.5450 161° South 495 570 39,000  Level FlightAware
09:12PM 47.0520 22.5910 160° South 495 570 39,000  Level FlightAware
09:13PM 46.9380 22.6510 160° South 493 567 39,000  Level FlightAware
09:14PM 46.8610 22.6900 161° South 492 566 39,000  Level FlightAware
09:15PM 46.7610 22.7420 160° South 491 565 39,000  Level FlightAware
09:15PM 46.6750 22.7860 161° South 489 563 39,000  Level FlightAware
09:16PM 46.5820 22.8340 160° South 488 562 39,000  Level FlightAware
09:17PM 46.4930 22.8800 160° South 488 562 39,000  Level FlightAware
09:17PM 46.4080 22.9230 161° South 489 563 39,000  Level FlightAware
09:18PM 46.2910 22.9830 160° South 492 566 39,000  Level FlightAware
09:19PM 46.1930 23.0320 161° South 493 567 39,000  Level FlightAware
09:20PM 46.1090 23.0750 160° South 493 567 39,000  Level FlightAware
09:20PM 46.0170 23.1210 161° South 491 565 39,000  Level FlightAware
09:21PM 45.9270 23.1680 160° South 493 567 39,000  Level FlightAware
09:22PM 45.8490 23.2370 148° Southeast 496 571 39,000  Level FlightAware
09:22PM 45.7730 23.3060 148° Southeast 497 572 39,000  Level FlightAware
09:23PM 45.6800 23.3900 148° Southeast 498 573 39,000  Level FlightAware
09:24PM 45.5890 23.4720 148° Southeast 500 575 39,000  Level FlightAware
09:25PM 45.5100 23.5430 148° Southeast 501 577 39,000  Level FlightAware
09:25PM 45.4330 23.6120 148° Southeast 501 577 39,000  Level FlightAware
09:26PM 45.3510 23.6850 148° Southeast 496 571 39,000  Level FlightAware
09:27PM 45.2710 23.7560 148° Southeast 494 568 39,000  Level FlightAware
09:28PM 45.1890 23.8290 148° Southeast 491 565 39,000  Level FlightAware
09:28PM 45.1210 23.8880 149° Southeast 491 565 39,000  Level FlightAware
09:29PM 45.0350 23.9650 148° Southeast 490 564 39,000  Level FlightAware
09:30PM 44.9550 24.0340 149° Southeast 485 558 39,000  Level FlightAware
09:30PM 44.8910 24.0900 148° Southeast 485 558 39,000  Level FlightAware
09:31PM 44.8120 24.1590 148° Southeast 484 557 39,000  Level FlightAware
09:32PM 44.7220 24.2360 149° Southeast 478 550 39,000  Level FlightAware
09:32PM 44.6520 24.2970 148° Southeast 477 549 39,000  Level FlightAware
09:33PM 44.5650 24.3720 148° Southeast 476 548 39,000  Level FlightAware
09:34PM 44.4860 24.4400 148° Southeast 477 549 39,000  Level FlightAware
09:34PM 44.4230 24.4940 149° Southeast 474 545 39,000  Level FlightAware
09:35PM 44.3400 24.5640 149° Southeast 474 545 39,000  Level FlightAware
09:36PM 44.2720 24.6220 149° Southeast 475 547 39,000  Level FlightAware
09:36PM 44.1800 24.7010 148° Southeast 478 550 39,000  Level FlightAware
09:37PM 44.1170 24.7530 149° Southeast 479 551 39,000  Level FlightAware
09:38PM 44.0280 24.8290 148° Southeast 481 554 39,000  Level FlightAware
09:38PM 43.9450 24.8980 149° Southeast 478 550 39,000  Level FlightAware
09:39PM 43.8820 24.9510 149° Southeast 479 551 39,000  Level FlightAware
09:40PM 43.8080 25.0130 149° Southeast 480 552 39,000  Level FlightAware
09:40PM 43.7170 25.0890 149° Southeast 481 554 39,000  Level FlightAware
09:41PM 43.6530 25.1410 150° Southeast 482 555 39,000  Level FlightAware
09:42PM 43.5750 25.2060 149° Southeast 481 554 39,000  Level FlightAware
09:42PM 43.4940 25.2730 149° Southeast 481 554 39,000  Level FlightAware
09:43PM 43.4180 25.3350 149° Southeast 478 550 39,000  Level FlightAware
09:44PM 43.3380 25.4010 149° Southeast 468 539 39,000  Level FlightAware
09:44PM 43.2590 25.4650 149° Southeast 466 536 39,000  Level FlightAware
09:45PM 43.1850 25.5260 149° Southeast 467 537 39,000  Level FlightAware
09:46PM 43.0990 25.5960 149° Southeast 468 539 39,000  Level FlightAware
09:46PM 43.0450 25.6400 149° Southeast 469 540 39,000  Level FlightAware
09:47PM 42.9690 25.7010 150° Southeast 467 537 39,000  Level FlightAware
09:48PM 42.8830 25.7700 150° Southeast 469 540 39,000  Level FlightAware
09:48PM 42.8080 25.8310 149° Southeast 472 543 39,000  Level FlightAware
09:49PM 42.7330 25.8910 150° Southeast 474 545 39,000  Level FlightAware
09:50PM 42.6580 25.9500 150° Southeast 476 548 39,000  Level FlightAware
09:51PM 42.5720 26.0180 150° Southeast 476 548 39,000  Level FlightAware
09:51PM 42.4960 26.0790 149° Southeast 473 544 39,000  Level FlightAware
09:52PM 42.4160 26.1420 150° Southeast 473 544 39,000  Level FlightAware
09:53PM 42.3380 26.2040 150° Southeast 471 542 39,000  Level FlightAware
09:53PM 42.2850 26.2460 150° Southeast 458 527 39,000 -660 Level FlightAware
09:54PM 42.1960 26.3160 150° Southeast 459 528 38,200 -1,620 Descending FlightAware
09:55PM 42.1180 26.3760 150° Southeast 479 551 36,700 -2,160 Descending FlightAware
09:55PM 42.0520 26.4280 150° Southeast 486 559 35,500 -2,100 Descending FlightAware
09:56PM 41.9800 26.4840 150° Southeast 486 559 34,100 -2,520 Descending FlightAware
09:57PM 41.8940 26.5670 144° Southeast 492 566 32,000 -2,280 Descending FlightAware
09:57PM 41.8300 26.6540 135° Southeast 477 549 30,800 -2,040 Descending FlightAware
09:58PM 41.7680 26.7690 126° Southeast 473 544 29,100 -1,980 Descending FlightAware
09:59PM 41.7200 26.8620 125° Southeast 462 532 28,000 -1,800 Descending FlightAware
09:59PM 41.6730 26.9530 125° Southeast 453 521 26,700 -540 Descending FlightAware
10:01PM 41.5520 27.1920 116° Southeast 453 521 26,700 -1,680 Level FlightAware
10:02PM 41.5457 27.3038 116° Southeast  Level Estimated
10:02PM 41.4910 27.3050 126° Southeast 404 465 22,400  Level FlightAware
10:03PM 41.4550 27.3770 124° Southeast 403 464 21,100 -1,740 Descending FlightAware
10:04PM 41.3940 27.4990 124° Southeast 391 450 19,600 -1,620 Descending FlightAware
10:04PM 41.3470 27.5920 124° Southeast 384 442 18,300 -1,680 Descending FlightAware
10:05PM 41.3080 27.6690 124° Southeast 376 433 17,300 -1,560 Descending FlightAware
10:06PM 41.2650 27.7530 124° Southeast 371 427 16,100 -1,560 Descending FlightAware
10:06PM 41.2260 27.8300 124° Southeast 360 414 15,100 -1,440 Descending FlightAware
10:07PM 41.1840 27.9130 124° Southeast 348 400 14,100 -1,440 Descending FlightAware
10:08PM 41.1490 27.9810 124° Southeast 347 399 13,100 -1,500 Descending FlightAware
10:09PM 41.1120 28.0520 125° Southeast 342 394 12,100 -1,080 Descending FlightAware
10:09PM 41.0730 28.1290 124° Southeast 317 365 11,600 -540 Descending FlightAware
10:10PM 41.0410 28.1900 125° Southeast 295 339 11,400 -420 Descending FlightAware
10:10PM 41.0260 28.2290 117° Southeast 277 319 11,200 -1,140 Descending FlightAware
10:11PM 40.9990 28.3130 113° Southeast 258 297 9,900 -1,680 Descending FlightAware
10:12PM 40.9850 28.3560 113° Southeast 257 296 8,800 -2,100 Descending FlightAware
10:12PM 40.9800 28.3690 117° Southeast 256 295 8,500 -1,800 Descending FlightAware
10:12PM 40.9660 28.4140 112° Southeast 249 287 7,600 -1,980 Descending FlightAware
10:13PM 40.9540 28.4480 115° Southeast 245 282 6,700 -1,980 Descending FlightAware
10:13PM 40.9490 28.4660 110° East 241 277 6,300 -2,100 Descending FlightAware
10:14PM 40.9380 28.4980 114° Southeast 241 277 5,300 -2,400 Descending FlightAware
10:14PM 40.9310 28.5200 113° Southeast 241 277 4,700 -1,080 Descending FlightAware
10:14PM 40.9170 28.5620 114° Southeast 238 274 4,400 -1,620 Descending FlightAware
10:15PM 40.8960 28.6210 115° Southeast 213 245 2,600 -1,740 Descending FlightAware
10:16PM 40.8890 28.6440 112° Southeast 191 220 2,500 -240 Descending FlightAware
10:16PM 40.9030 28.6750 59° Northeast 149 171 2,400 -600 Descending FlightAware
10:17PM 40.9190 28.7110 60° Northeast 153 176 1,800 -780 Descending FlightAware
10:17PM 40.9220 28.7170 57° Northeast 152 175 1,700 -780 Descending FlightAware
10:18PM 40.9340 28.7420 58° Northeast 136 157 1,300 -720 Descending FlightAware
10:18PM 40.9460 28.7680 59° Northeast 131 151 900 -420 Descending FlightAware
10:19PM 40.9540 28.7840 56° Northeast 131 151 900 -540 Level FlightAware
10:19PM 40.9690 28.8170 59° Northeast 131 151 300 -840 Descending FlightAware
10:20PM 40.9770 28.8350 60° Northeast 67 77 -420 Descending FlightAware
10:23PM 40.9769 28.8211 150° Southeast  Level Estimated
10:24PM 40.9769 28.8211 150° Southeast  Level Estimated
10:25PM 40.9769 28.8211 150° Southeast  Level Estimated
10:26PM 40.9769 28.8211 150° Southeast  Level Estimated
10:27PM 40.9769 28.8211 150° Southeast  Level Estimated
10:28PM 40.9769 28.8211 150° Southeast  Level Estimated
10:29PM 40.9769 28.8211 150° Southeast  Level Estimated
10:30PM 40.9769 28.8211 150° Southeast  Level Estimated